TimeEDT,TemperatureF,Dew PointF,Humidity,Sea Level PressureIn,VisibilityMPH,Wind Direction,Wind SpeedMPH,Gust SpeedMPH,PrecipitationIn,Events,Conditions,WindDirDegrees,DateUTC
12:53 AM,32.0,28.9,88,29.91,10.0,WNW,4.6,-,0.00,,Overcast,300,2013-03-26 04:53:00
1:53 AM,33.1,28.9,85,29.92,10.0,WNW,6.9,-,N/A,,Overcast,300,2013-03-26 05:53:00
2:53 AM,33.1,28.0,82,29.93,10.0,NW,8.1,-,N/A,,Overcast,310,2013-03-26 06:53:00
3:53 AM,33.1,28.0,82,29.93,10.0,NW,8.1,-,N/A,,Overcast,320,2013-03-26 07:53:00
4:53 AM,32.0,28.0,85,29.94,10.0,NW,9.2,-,N/A,,Overcast,320,2013-03-26 08:53:00
5:53 AM,32.0,28.0,85,29.96,10.0,NW,8.1,-,N/A,,Overcast,310,2013-03-26 09:53:00
6:53 AM,32.0,28.0,85,29.98,10.0,WNW,8.1,-,N/A,,Overcast,300,2013-03-26 10:53:00
7:53 AM,32.0,28.0,85,30.00,10.0,WNW,8.1,-,0.00,,Overcast,300,2013-03-26 11:53:00
8:53 AM,32.0,27.0,82,30.02,10.0,WNW,6.9,-,N/A,,Overcast,290,2013-03-26 12:53:00
9:53 AM,33.1,28.0,82,30.04,10.0,WNW,5.8,-,N/A,,Overcast,290,2013-03-26 13:53:00
10:53 AM,34.0,27.0,75,30.06,10.0,WNW,10.4,-,N/A,,Overcast,290,2013-03-26 14:53:00
11:53 AM,36.0,28.0,73,30.07,10.0,WNW,10.4,-,N/A,,Overcast,290,2013-03-26 15:53:00
12:53 PM,37.0,28.0,70,30.08,10.0,WNW,9.2,-,N/A,,Clear,300,2013-03-26 16:53:00
1:53 PM,37.9,28.9,70,30.07,10.0,West,11.5,-,N/A,,Clear,260,2013-03-26 17:53:00
2:53 PM,37.9,30.0,73,30.07,10.0,WSW,15.0,-,N/A,,Scattered Clouds,250,2013-03-26 18:53:00
3:53 PM,37.9,28.9,70,30.07,10.0,West,13.8,-,N/A,,Overcast,260,2013-03-26 19:53:00
4:53 PM,34.0,30.9,89,30.09,3.0,WNW,10.4,-,0.00,Snow,Light Snow,300,2013-03-26 20:53:00
5:17 PM,35.6,32.0,87,30.07,10.0,West,8.1,-,0.00,,Overcast,270,2013-03-26 21:17:00
5:53 PM,37.0,30.0,76,30.08,10.0,WSW,12.7,-,0.00,,Overcast,250,2013-03-26 21:53:00
6:53 PM,37.0,30.0,76,30.10,10.0,West,10.4,-,0.01,,Overcast,270,2013-03-26 22:53:00
7:53 PM,36.0,28.9,76,30.11,10.0,West,9.2,-,0.00,,Overcast,280,2013-03-26 23:53:00
8:53 PM,35.1,28.9,78,30.13,10.0,West,10.4,-,N/A,,Overcast,270,2013-03-27 00:53:00
9:53 PM,34.0,28.0,79,30.14,10.0,West,11.5,-,N/A,,Overcast,270,2013-03-27 01:53:00
10:53 PM,34.0,28.9,82,30.15,10.0,West,12.7,-,N/A,,Overcast,270,2013-03-27 02:53:00
11:53 PM,34.0,28.0,79,30.15,10.0,West,11.5,-,N/A,,Overcast,270,2013-03-27 03:53:00